createdAt,value
2023-03-17T00:05:15.128Z,20.1
2023-03-17T00:11:07.775Z,20.1
2023-03-17T00:16:45.104Z,20.1
2023-03-17T00:22:37.191Z,20
2023-03-17T00:28:30.547Z,20
2023-03-17T00:34:07.576Z,19.9
2023-03-17T00:39:28.733Z,19.9
2023-03-17T00:45:05.971Z,19.9
2023-03-17T00:50:58.802Z,19.9
2023-03-17T00:56:51.473Z,19.9
2023-03-17T01:02:29.650Z,19.8
2023-03-17T01:08:31.035Z,19.8
2023-03-17T01:14:07.721Z,19.8
2023-03-17T01:19:45.235Z,19.8
2023-03-17T01:25:37.850Z,19.8
2023-03-17T01:31:30.257Z,19.8
2023-03-17T01:37:08.209Z,19.8
2023-03-17T01:42:30.234Z,19.7
2023-03-17T01:48:23.723Z,19.7
2023-03-17T01:54:16.633Z,19.7
2023-03-17T01:59:37.735Z,19.6
2023-03-17T02:04:59.160Z,19.6
2023-03-17T02:11:05.734Z,19.6
2023-03-17T02:16:58.132Z,19.7
2023-03-17T02:22:50.599Z,19.7
2023-03-17T02:28:12.466Z,19.8
2023-03-17T02:33:49.973Z,19.8
2023-03-17T02:39:28.239Z,19.8
2023-03-17T02:45:05.565Z,19.9
2023-03-17T02:50:26.157Z,19.9
2023-03-17T02:56:18.793Z,20.1
2023-03-17T03:01:56.657Z,20.2
2023-03-17T03:07:49.171Z,20.3
2023-03-17T03:13:42.305Z,20.4
2023-03-17T03:19:36.078Z,20.6
2023-03-17T03:25:27.849Z,20.7
2023-03-17T03:31:20.402Z,20.8
2023-03-17T03:36:58.187Z,21
2023-03-17T03:48:26.018Z,21.2
2023-03-17T03:54:02.666Z,21.3
2023-03-17T03:59:39.946Z,21.3
2023-03-17T04:05:19.326Z,21.4
2023-03-17T04:11:10.563Z,21.4
2023-03-17T04:17:03.720Z,21.4
2023-03-17T04:22:56.414Z,21.8
2023-03-17T04:28:51.102Z,22.1
2023-03-17T04:34:30.004Z,22.1
2023-03-17T04:40:25.420Z,21.9
2023-03-17T04:46:18.896Z,21.9
2023-03-17T04:51:59.845Z,21.9
2023-03-17T04:57:38.913Z,21.9
2023-03-17T05:03:59.185Z,21.9
2023-03-17T05:09:51.539Z,21.9
2023-03-17T05:15:43.421Z,21.9
2023-03-17T05:21:36.352Z,21.9
2023-03-17T05:27:28.414Z,21.9
2023-03-17T05:33:22.320Z,21.9
2023-03-17T05:39:14.806Z,21.9
2023-03-17T05:45:09.169Z,21.9
2023-03-17T05:51:02.778Z,21.9
2023-03-17T05:56:57.261Z,21.8
2023-03-17T06:02:34.511Z,21.9
2023-03-17T06:08:42.124Z,21.8
2023-03-17T06:14:19.168Z,21.8
2023-03-17T06:20:11.839Z,21.8
2023-03-17T06:26:13.973Z,21.8
2023-03-17T06:32:19.640Z,21.8
2023-03-17T06:38:13.823Z,21.8
2023-03-17T06:44:07.834Z,21.8
2023-03-17T06:50:01.099Z,21.8
2023-03-17T06:55:54.861Z,21.8
2023-03-17T07:02:04.860Z,21.8
2023-03-17T07:07:57.869Z,21.8
2023-03-17T07:13:49.771Z,21.8
2023-03-17T07:19:43.365Z,21.8
2023-03-17T07:25:35.837Z,21.8
2023-03-17T07:31:28.409Z,21.8
2023-03-17T07:36:51.534Z,21.8
2023-03-17T07:42:29.051Z,21.7
2023-03-17T07:48:23.755Z,21.7
2023-03-17T07:54:31.412Z,21.7
2023-03-17T08:00:24.167Z,21.7
2023-03-17T08:06:34.040Z,21.7
2023-03-17T08:12:26.266Z,21.7
2023-03-17T08:18:19.383Z,21.7
2023-03-17T08:24:13.957Z,21.7
2023-03-17T08:30:09.630Z,21.7
2023-03-17T08:36:04.685Z,21.7
2023-03-17T08:41:43.501Z,21.7
2023-03-17T08:47:21.109Z,21.7
2023-03-17T08:53:14.088Z,21.7
2023-03-17T08:58:51.544Z,21.6
2023-03-17T09:04:45.965Z,21.7
2023-03-17T09:11:00.984Z,21.6
2023-03-17T09:17:03.508Z,21.6
2023-03-17T09:22:43.659Z,21.6
2023-03-17T09:28:37.344Z,21.6
2023-03-17T09:34:31.483Z,21.6
2023-03-17T09:39:56.740Z,21.6
2023-03-17T09:45:50.788Z,21.6
2023-03-17T09:51:44.372Z,21.6
2023-03-17T09:57:38.376Z,21.6
2023-03-17T10:03:31.384Z,21.6
2023-03-17T10:09:36.874Z,21.6
2023-03-17T10:15:30.268Z,21.6
2023-03-17T10:21:24.747Z,21.6
2023-03-17T10:26:48.674Z,21.6
2023-03-17T10:32:42.779Z,21.6
2023-03-17T10:38:47.511Z,21.6
2023-03-17T10:44:39.536Z,21.6
2023-03-17T10:50:32.885Z,21.6
2023-03-17T10:56:25.626Z,21.6
2023-03-17T11:02:19.746Z,21.6
2023-03-17T11:08:14.044Z,21.6
2023-03-17T11:14:06.447Z,21.6
2023-03-17T11:19:58.123Z,21.6
2023-03-17T11:25:36.602Z,21.6
2023-03-17T11:31:14.343Z,21.6
2023-03-17T11:37:06.978Z,21.5
2023-03-17T11:43:00.188Z,21.5
2023-03-17T11:48:52.921Z,21.5
2023-03-17T11:54:46.030Z,21.5
2023-03-17T12:00:38.674Z,21.5
2023-03-17T12:06:32.397Z,21.5
2023-03-17T12:12:24.344Z,21.5
2023-03-17T12:18:19.581Z,21.5
2023-03-17T12:24:13.135Z,28.5
2023-03-17T12:29:50.214Z,54.4
2023-03-17T12:35:46.596Z,46.6
2023-03-17T12:41:40.081Z,41.9
2023-03-17T12:47:34.201Z,42.3
2023-03-17T12:53:27.248Z,58.1
2023-03-17T12:59:20.060Z,52.3
2023-03-17T13:05:16.567Z,45.9
2023-03-17T13:11:11.118Z,41.6
2023-03-17T13:16:49.088Z,38.4
2023-03-17T13:22:43.518Z,35.8
2023-03-17T13:28:41.538Z,33.8
2023-03-17T13:34:35.223Z,32.1
2023-03-17T13:40:44.019Z,30.8
2023-03-17T13:46:51.848Z,29.6
2023-03-17T13:52:50.945Z,28.7
2023-03-17T13:58:44.729Z,27.9
2023-03-17T14:04:38.567Z,27.2
2023-03-17T14:10:31.855Z,26.6
2023-03-17T14:16:34.332Z,26.1
2023-03-17T14:22:15.967Z,25.7
2023-03-17T14:28:11.267Z,25.3
2023-03-17T14:34:05.234Z,24.9
2023-03-17T14:39:42.864Z,24.7
2023-03-17T14:45:35.931Z,24.4
2023-03-17T14:51:28.592Z,24.1
2023-03-17T14:57:21.880Z,23.9
2023-03-17T15:03:16.168Z,23.8
2023-03-17T15:09:11.889Z,23.6
2023-03-17T15:15:05.141Z,23.4
2023-03-17T15:20:58.452Z,23.3
2023-03-17T15:26:52.030Z,23.1
2023-03-17T15:32:52.138Z,23
2023-03-17T15:38:51.746Z,22.9
2023-03-17T15:44:44.887Z,22.8
2023-03-17T15:50:37.784Z,22.7
2023-03-17T15:56:31.774Z,22.6
2023-03-17T16:02:25.905Z,22.6
2023-03-17T16:08:18.334Z,22.5
2023-03-17T16:14:14.624Z,22.4
2023-03-17T16:20:19.975Z,22.4
2023-03-17T16:26:24.128Z,22.3
2023-03-17T16:32:01.295Z,22.3
2023-03-17T16:37:53.252Z,22.2
2023-03-17T16:43:57.508Z,22.1
2023-03-17T16:49:50.967Z,22.1
2023-03-17T16:55:28.055Z,22.1
2023-03-17T17:01:22.308Z,22
2023-03-17T17:06:44.748Z,22
2023-03-17T17:12:21.605Z,21.9
2023-03-17T17:17:58.529Z,21.9
2023-03-17T17:23:35.185Z,21.9
2023-03-17T17:28:58.851Z,21.9
2023-03-17T17:34:37.347Z,21.8
2023-03-17T17:40:30.410Z,21.8
2023-03-17T17:46:23.979Z,21.8
2023-03-17T17:52:03.396Z,21.8
2023-03-17T17:57:56.273Z,21.8
2023-03-17T18:03:32.832Z,22.1
2023-03-17T18:08:54.741Z,22.7
2023-03-17T18:14:32.859Z,23.1
2023-03-17T18:20:09.119Z,23.4
2023-03-17T18:26:02.179Z,23.7
2023-03-17T18:31:56.038Z,23.9
2023-03-17T18:37:18.327Z,24.1
2023-03-17T18:43:25.153Z,24.3
2023-03-17T18:48:47.317Z,24.4
2023-03-17T18:54:23.964Z,24.5
2023-03-17T19:00:18.460Z,24.6
2023-03-17T19:06:12.007Z,24.7
2023-03-17T19:11:33.636Z,24.7
2023-03-17T19:17:26.124Z,24.8
2023-03-17T19:23:17.600Z,24.8
2023-03-17T19:28:54.476Z,24.8
2023-03-17T19:34:33.172Z,24.8
2023-03-17T19:40:12.005Z,24.6
2023-03-17T19:45:44.296Z,24.5
2023-03-17T19:51:22.718Z,24.4
2023-03-17T19:56:28.757Z,24.4
2023-03-17T20:02:21.789Z,24.6
2023-03-17T20:08:15.006Z,24.6
2023-03-17T20:14:07.801Z,24.7
2023-03-17T20:19:31.882Z,24.6
2023-03-17T20:24:38.295Z,24.6
2023-03-17T20:30:16.249Z,24.6
2023-03-17T20:35:56.448Z,24.4
2023-03-17T20:41:49.312Z,24.4
2023-03-17T20:47:41.808Z,24.3
2023-03-17T20:53:37.112Z,24.2
2023-03-17T20:59:30.220Z,24.1
2023-03-17T21:05:23.972Z,24
2023-03-17T21:11:16.099Z,23.9
2023-03-17T21:16:54.800Z,23.8
2023-03-17T21:22:50.850Z,23.8
2023-03-17T21:28:28.158Z,23.7
2023-03-17T21:33:49.596Z,23.6
2023-03-17T21:39:45.889Z,23.6
2023-03-17T21:45:38.455Z,23.4
2023-03-17T21:51:31.714Z,23.4
2023-03-17T21:57:25.485Z,23.3
2023-03-17T22:03:10.796Z,23.2
2023-03-17T22:08:33.446Z,23
2023-03-17T22:13:56.134Z,22.8
2023-03-17T22:19:37.130Z,22.7
2023-03-17T22:25:14.606Z,22.6
2023-03-17T22:31:07.819Z,22.6
2023-03-17T22:37:01.833Z,22.4
2023-03-17T22:42:40.878Z,22.4
2023-03-17T22:48:36.405Z,22.3
2023-03-17T22:53:58.691Z,22.3
2023-03-17T22:59:50.858Z,22.2
2023-03-17T23:05:43.238Z,22.2
2023-03-17T23:11:31.097Z,22.1
2023-03-17T23:17:23.692Z,22.1
2023-03-17T23:23:17.075Z,22
2023-03-17T23:29:09.919Z,21.9
2023-03-17T23:34:48.113Z,21.9
2023-03-17T23:40:26.181Z,21.8
2023-03-17T23:46:19.702Z,21.8
2023-03-17T23:51:57.279Z,21.8
2023-03-17T23:57:34.302Z,21.7
